UAOO 210700Z 09002MPS 030V200 9999 SCT046 M03/M10 Q1028 NOSIG RMK QFE759/1013
QNH:(hPa/inHg/mmHg)1028 / 30.36 / 771
QFE:(hPa/inHg/mmHg)1012 / 29.88 / 759
Temperature-3
Dew Point-10
Visibility> 10000
Weather
Cloud CoverSCT (4600);
Transition Altitude10000 ft.
Transition LevelFL110
SQUAWK